createdAt,value
2022-10-17T00:01:21.975Z,102417.41
2022-10-17T00:03:48.509Z,102413.75
2022-10-17T00:06:15.306Z,102418.28
2022-10-17T00:08:43.201Z,102413.84
2022-10-17T00:11:18.384Z,102422.75
2022-10-17T00:13:46.684Z,102428.09
2022-10-17T00:16:13.085Z,102421.06
2022-10-17T00:18:39.530Z,102419.41
2022-10-17T00:21:06.510Z,102426.47
2022-10-17T00:23:33.718Z,102433.31
2022-10-17T00:26:06.054Z,102429.72
2022-10-17T00:28:33.110Z,102439.94
2022-10-17T00:31:02.404Z,102431.47
2022-10-17T00:33:29.860Z,102438.69
2022-10-17T00:36:04.579Z,102434.66
2022-10-17T00:38:31.027Z,102434.84
2022-10-17T00:40:57.470Z,102445.63
2022-10-17T00:43:24.228Z,102447.91
2022-10-17T00:45:50.789Z,102437.19
2022-10-17T00:48:21.227Z,102416.50
2022-10-17T00:50:50.096Z,102401.00
2022-10-17T00:53:18.386Z,102400.50
2022-10-17T00:55:48.209Z,102389.03
2022-10-17T00:58:15.535Z,102393.13
2022-10-17T01:00:43.217Z,102396.22
2022-10-17T01:03:09.671Z,102396.63
2022-10-17T01:05:37.021Z,102396.63
2022-10-17T01:08:04.029Z,102394.00
2022-10-17T01:10:39.152Z,102396.50
2022-10-17T01:13:17.955Z,102401.81
2022-10-17T01:16:09.879Z,102409.63
2022-10-17T01:18:43.852Z,102435.25
2022-10-17T01:21:45.540Z,102430.66
2022-10-17T01:24:45.153Z,102425.38
2022-10-17T01:27:37.799Z,102422.59
2022-10-17T01:30:17.301Z,102425.91
2022-10-17T01:32:57.072Z,102410.88
2022-10-17T01:35:29.570Z,102409.22
2022-10-17T01:38:11.597Z,102413.56
2022-10-17T01:40:45.895Z,102401.78
2022-10-17T01:43:32.052Z,102407.53
2022-10-17T01:46:06.131Z,102405.78
2022-10-17T01:48:37.952Z,102390.00
2022-10-17T01:51:36.307Z,102366.25
2022-10-17T01:54:10.690Z,102348.44
2022-10-17T01:56:40.396Z,102335.72
2022-10-17T01:59:21.312Z,102310.13
2022-10-17T02:01:52.309Z,102297.75
2022-10-17T02:04:19.284Z,102314.00
2022-10-17T02:06:45.868Z,102309.72
2022-10-17T02:09:26.270Z,102306.44
2022-10-17T02:12:22.479Z,102305.75
2022-10-17T02:15:20.835Z,102296.13
2022-10-17T02:18:00.324Z,102295.25
2022-10-17T02:21:18.823Z,102281.91
2022-10-17T02:23:57.314Z,102277.56
2022-10-17T02:27:09.946Z,102276.97
2022-10-17T02:29:55.772Z,102264.84
2022-10-17T02:32:46.623Z,102249.88
2022-10-17T02:35:17.414Z,102274.72
2022-10-17T02:37:47.222Z,102277.38
2022-10-17T02:40:16.382Z,102266.59
2022-10-17T02:42:46.069Z,102262.31
2022-10-17T02:45:14.570Z,102240.00
2022-10-17T02:47:49.587Z,102256.28
2022-10-17T02:50:16.212Z,102252.97
2022-10-17T02:52:51.043Z,102243.31
2022-10-17T02:55:21.075Z,102238.53
2022-10-17T02:57:52.612Z,102228.72
2022-10-17T03:00:20.261Z,102218.09
2022-10-17T03:02:49.489Z,102213.56
2022-10-17T03:05:21.139Z,102210.91
2022-10-17T03:07:47.583Z,102210.31
2022-10-17T03:10:14.318Z,102213.75
2022-10-17T03:12:40.800Z,102210.16
2022-10-17T03:15:08.051Z,102221.78
2022-10-17T03:17:35.551Z,102221.50
2022-10-17T03:20:02.525Z,102226.88
2022-10-17T03:22:29.123Z,102234.41
2022-10-17T03:24:55.734Z,102229.09
2022-10-17T03:27:22.331Z,102219.41
2022-10-17T03:29:48.703Z,102227.03
2022-10-17T03:32:15.203Z,102231.69
2022-10-17T03:34:41.624Z,102231.72
2022-10-17T03:37:08.044Z,102243.34
2022-10-17T03:39:34.471Z,102230.59
2022-10-17T03:42:00.935Z,102223.28
2022-10-17T03:44:27.412Z,102177.63
2022-10-17T03:46:53.827Z,102176.59
2022-10-17T03:49:20.232Z,102195.06
2022-10-17T03:51:46.648Z,102191.22
2022-10-17T03:54:13.223Z,102177.38
2022-10-17T03:56:39.648Z,102185.31
2022-10-17T03:59:06.026Z,102188.81
2022-10-17T04:01:32.517Z,102179.00
2022-10-17T04:03:59.011Z,102170.66
2022-10-17T04:06:25.444Z,102163.34
2022-10-17T04:08:51.888Z,102138.66
2022-10-17T04:11:21.151Z,102138.94
2022-10-17T04:13:48.059Z,102124.59
2022-10-17T04:16:16.831Z,102118.97
2022-10-17T04:18:44.259Z,102101.84
2022-10-17T04:21:11.768Z,102089.78
2022-10-17T04:23:38.709Z,102087.03
2022-10-17T04:26:06.228Z,102084.84
2022-10-17T04:28:33.793Z,102080.88
2022-10-17T04:31:02.543Z,102085.91
2022-10-17T04:33:29.044Z,102076.28
2022-10-17T04:36:13.147Z,102056.34
2022-10-17T04:38:40.171Z,102047.13
2022-10-17T04:41:14.989Z,102038.53
2022-10-17T04:43:43.542Z,102023.56
2022-10-17T04:46:14.886Z,102013.41
2022-10-17T04:48:41.642Z,102002.78
2022-10-17T04:51:11.639Z,101991.81
2022-10-17T04:53:39.157Z,101984.78
2022-10-17T04:56:10.077Z,101976.56
2022-10-17T04:58:37.907Z,101969.75
2022-10-17T05:01:09.066Z,101950.31
2022-10-17T05:03:36.120Z,101955.50
2022-10-17T05:06:14.046Z,101940.84
2022-10-17T05:08:40.673Z,101929.09
2022-10-17T05:11:16.923Z,101916.34
2022-10-17T05:13:43.365Z,101912.91
2022-10-17T05:16:10.790Z,101911.06
2022-10-17T05:18:37.333Z,101894.97
2022-10-17T05:21:04.409Z,101893.31
2022-10-17T05:23:30.910Z,101891.84
2022-10-17T05:25:57.769Z,101897.41
2022-10-17T05:28:24.633Z,101888.97
2022-10-17T05:30:51.041Z,101895.59
2022-10-17T05:33:17.476Z,101898.28
2022-10-17T05:35:43.873Z,101897.56
2022-10-17T05:38:10.371Z,101894.50
2022-10-17T05:40:38.551Z,101882.78
2022-10-17T05:43:05.364Z,101897.25
2022-10-17T05:45:31.805Z,101879.63
2022-10-17T05:47:58.215Z,101873.59
2022-10-17T05:50:25.206Z,101866.13
2022-10-17T05:52:55.783Z,101851.91
2022-10-17T05:55:23.263Z,101851.25
2022-10-17T05:57:52.489Z,101856.28
2022-10-17T06:00:19.727Z,101861.00
2022-10-17T06:02:46.593Z,101876.09
2022-10-17T06:05:13.995Z,101862.41
2022-10-17T06:07:41.255Z,101859.13
2022-10-17T06:10:08.112Z,101855.03
2022-10-17T06:12:34.526Z,101858.38
2022-10-17T06:15:01.115Z,101854.47
2022-10-17T06:17:29.222Z,101849.34
2022-10-17T06:19:56.635Z,101857.16
2022-10-17T06:22:23.450Z,101853.69
2022-10-17T06:24:49.955Z,101838.78
2022-10-17T06:27:16.344Z,101840.16
2022-10-17T06:29:42.744Z,101828.31
2022-10-17T06:32:12.562Z,101821.91
2022-10-17T06:34:41.406Z,101825.91
2022-10-17T06:37:07.945Z,101831.75
2022-10-17T06:39:36.028Z,101828.47
2022-10-17T06:42:04.210Z,101823.75
2022-10-17T06:44:31.824Z,101819.03
2022-10-17T06:46:59.634Z,101811.03
2022-10-17T06:49:26.983Z,101799.28
2022-10-17T06:51:53.967Z,101798.91
2022-10-17T06:54:20.684Z,101797.53
2022-10-17T06:56:47.083Z,101793.75
2022-10-17T06:59:13.553Z,101789.72
2022-10-17T07:01:41.894Z,101783.91
2022-10-17T07:04:11.241Z,101779.09
2022-10-17T07:06:38.582Z,101769.88
2022-10-17T07:09:06.940Z,101774.09
2022-10-17T07:11:35.021Z,101762.03
2022-10-17T07:14:02.399Z,101757.16
2022-10-17T07:16:28.895Z,101758.19
2022-10-17T07:18:55.611Z,101758.84
2022-10-17T07:21:22.067Z,101755.09
2022-10-17T07:23:48.524Z,101755.69
2022-10-17T07:26:16.884Z,101751.31
2022-10-17T07:28:44.268Z,101747.03
2022-10-17T07:31:13.467Z,101736.25
2022-10-17T07:33:39.954Z,101746.19
2022-10-17T07:36:06.705Z,101740.53
2022-10-17T07:38:33.946Z,101740.66
2022-10-17T07:41:02.905Z,101733.22
2022-10-17T07:43:30.190Z,101741.22
2022-10-17T07:45:57.126Z,101749.03
2022-10-17T07:48:25.473Z,101745.78
2022-10-17T07:50:51.864Z,101742.41
2022-10-17T07:53:18.829Z,101725.94
2022-10-17T07:55:46.385Z,101718.34
2022-10-17T07:58:14.001Z,101707.38
2022-10-17T08:00:40.525Z,101714.66
2022-10-17T08:03:07.368Z,101702.72
2022-10-17T08:05:34.431Z,101704.16
2022-10-17T08:08:00.932Z,101697.53
2022-10-17T08:10:29.236Z,101696.38
2022-10-17T08:12:56.454Z,101696.69
2022-10-17T08:15:26.789Z,101685.13
2022-10-17T08:17:56.022Z,101683.22
2022-10-17T08:20:22.553Z,101679.59
2022-10-17T08:22:55.669Z,101666.16
2022-10-17T08:25:22.853Z,101676.97
2022-10-17T08:27:49.972Z,101668.63
2022-10-17T08:30:16.955Z,101664.53
2022-10-17T08:32:44.297Z,101665.19
2022-10-17T08:35:10.897Z,101682.13
2022-10-17T08:37:37.416Z,101674.84
2022-10-17T08:40:04.518Z,101680.09
2022-10-17T08:42:50.996Z,101680.09
2022-10-17T08:45:38.141Z,101690.66
2022-10-17T08:48:12.218Z,101676.44
2022-10-17T08:51:02.029Z,101665.59
2022-10-17T08:53:48.018Z,101659.94
2022-10-17T08:56:44.142Z,101658.56
2022-10-17T08:59:14.610Z,101652.47
2022-10-17T09:02:01.642Z,101657.50
2022-10-17T09:05:01.538Z,101645.50
2022-10-17T09:07:39.595Z,101658.03
2022-10-17T09:10:28.348Z,101668.28
2022-10-17T09:13:25.834Z,101665.22
2022-10-17T09:16:04.465Z,101668.00
2022-10-17T09:18:36.327Z,101664.13
2022-10-17T09:21:26.497Z,101668.41
2022-10-17T09:24:09.731Z,101666.09
2022-10-17T09:26:44.339Z,101676.38
2022-10-17T09:29:22.354Z,101669.03
2022-10-17T09:32:11.285Z,101653.06
2022-10-17T09:34:37.908Z,101638.09
2022-10-17T09:37:12.493Z,101628.16
2022-10-17T09:39:38.981Z,101623.44
2022-10-17T09:42:05.511Z,101625.34
2022-10-17T09:44:33.435Z,101628.03
2022-10-17T09:47:13.572Z,101635.63
2022-10-17T09:49:45.363Z,101649.56
2022-10-17T09:52:22.961Z,101660.09
2022-10-17T09:54:57.283Z,101648.31
2022-10-17T09:57:23.846Z,101644.00
2022-10-17T09:59:58.749Z,101629.19
2022-10-17T10:02:27.469Z,101631.22
2022-10-17T10:05:05.912Z,101622.78
2022-10-17T10:07:38.774Z,101616.66
2022-10-17T10:10:08.696Z,101615.09
2022-10-17T10:12:38.328Z,101612.81
2022-10-17T10:15:33.652Z,101609.78
2022-10-17T10:18:00.384Z,101597.13
2022-10-17T10:20:36.799Z,101599.88
2022-10-17T10:23:15.944Z,101607.75
2022-10-17T10:25:53.091Z,101608.31
2022-10-17T10:28:20.020Z,101610.00
2022-10-17T10:30:49.762Z,101606.28
2022-10-17T10:33:18.824Z,101618.59
2022-10-17T10:35:54.285Z,101614.00
2022-10-17T10:38:21.011Z,101611.66
2022-10-17T10:40:50.152Z,101608.25
2022-10-17T10:43:32.947Z,101605.69
2022-10-17T10:46:00.553Z,101594.03
2022-10-17T10:48:36.689Z,101593.09
2022-10-17T10:51:19.511Z,101599.16
2022-10-17T10:53:53.435Z,101600.84
2022-10-17T10:56:25.991Z,101592.38
2022-10-17T10:59:19.246Z,101596.47
2022-10-17T11:02:17.892Z,101592.78
2022-10-17T11:04:49.806Z,101581.00
2022-10-17T11:07:24.930Z,101580.34
2022-10-17T11:10:21.611Z,101587.13
2022-10-17T11:13:13.872Z,101587.66
2022-10-17T11:15:57.756Z,101603.69
2022-10-17T11:18:34.162Z,101602.78
2022-10-17T11:21:13.173Z,101624.22
2022-10-17T11:24:07.039Z,101610.53
2022-10-17T11:26:41.941Z,101608.13
2022-10-17T11:29:11.910Z,101624.75
2022-10-17T11:31:44.807Z,101635.53
2022-10-17T11:34:27.519Z,101649.47
2022-10-17T11:37:02.495Z,101681.72
2022-10-17T11:39:47.342Z,101672.69
2022-10-17T11:42:18.124Z,101673.81
2022-10-17T11:44:44.931Z,101682.84
2022-10-17T11:47:35.873Z,101689.34
2022-10-17T11:53:16.719Z,101683.63
2022-10-17T11:55:44.344Z,101692.00
2022-10-17T11:58:35.006Z,101717.38
2022-10-17T12:01:16.600Z,101725.06
2022-10-17T12:03:58.734Z,101734.84
2022-10-17T12:06:46.494Z,101747.34
2022-10-17T12:09:54.411Z,101737.78
2022-10-17T12:12:35.119Z,101714.38
2022-10-17T12:15:13.990Z,101697.97
2022-10-17T12:17:55.608Z,101680.00
2022-10-17T12:20:25.142Z,101658.84
2022-10-17T12:22:53.109Z,101637.91
2022-10-17T12:25:29.741Z,101641.13
2022-10-17T12:28:17.491Z,101645.69
2022-10-17T12:30:51.674Z,101656.84
2022-10-17T12:33:22.597Z,101666.06
2022-10-17T12:35:51.205Z,101672.00
2022-10-17T12:38:17.560Z,101678.13
2022-10-17T12:40:47.862Z,101691.06
2022-10-17T12:43:16.217Z,101683.84
2022-10-17T12:45:50.208Z,101686.06
2022-10-17T12:48:38.529Z,101691.72
2022-10-17T12:51:35.191Z,101700.16
2022-10-17T12:54:12.208Z,101709.81
2022-10-17T12:56:41.973Z,101718.31
2022-10-17T12:59:29.299Z,101741.47
2022-10-17T13:02:01.744Z,101762.75
2022-10-17T13:04:29.819Z,101778.13
2022-10-17T13:06:59.110Z,101784.09
2022-10-17T13:09:37.473Z,101798.19
2022-10-17T13:12:11.172Z,101816.78
2022-10-17T13:14:41.482Z,101812.28
2022-10-17T13:17:28.735Z,101878.84
2022-10-17T13:19:55.894Z,101953.44
2022-10-17T13:22:25.395Z,101984.25
2022-10-17T13:24:53.953Z,102030.94
2022-10-17T13:27:28.435Z,102068.38
2022-10-17T13:29:56.762Z,102101.31
2022-10-17T13:32:24.137Z,102151.97
2022-10-17T13:35:08.333Z,102187.56
2022-10-17T13:37:36.137Z,102208.06
2022-10-17T13:40:17.469Z,102212.78
2022-10-17T13:42:50.970Z,102197.34
2022-10-17T13:45:29.412Z,102193.91
2022-10-17T13:47:57.617Z,102195.00
2022-10-17T13:50:44.840Z,102195.19
2022-10-17T13:53:19.160Z,102206.41
2022-10-17T13:56:26.351Z,102199.13
2022-10-17T13:58:53.289Z,102194.66
2022-10-17T14:01:21.371Z,102184.34
2022-10-17T14:03:50.604Z,102184.16
2022-10-17T14:06:27.973Z,102168.78
2022-10-17T14:09:06.528Z,102176.22
2022-10-17T14:11:37.842Z,102162.34
2022-10-17T14:14:07.154Z,102168.50
2022-10-17T14:16:37.173Z,102174.41
2022-10-17T14:19:05.176Z,102169.34
2022-10-17T14:21:43.327Z,102175.69
2022-10-17T14:24:37.081Z,102173.53
2022-10-17T14:27:03.609Z,102187.34
2022-10-17T14:29:32.880Z,102193.50
2022-10-17T14:32:05.379Z,102182.72
2022-10-17T14:34:35.660Z,102183.00
2022-10-17T14:37:08.003Z,102185.84
2022-10-17T14:39:34.423Z,102182.00
2022-10-17T14:42:04.410Z,102186.72
2022-10-17T14:44:33.924Z,102189.38
2022-10-17T14:47:18.318Z,102176.94
2022-10-17T14:49:52.204Z,102165.97
2022-10-17T14:52:29.210Z,102180.94
2022-10-17T14:54:57.385Z,102196.28
2022-10-17T14:57:28.732Z,102203.81
2022-10-17T14:59:56.530Z,102194.00
2022-10-17T15:02:25.474Z,102273.34
2022-10-17T15:04:52.713Z,102281.31
2022-10-17T15:07:21.046Z,102292.03
2022-10-17T15:09:48.408Z,102280.34
2022-10-17T15:12:25.138Z,102246.47
2022-10-17T15:14:52.870Z,102249.25
2022-10-17T15:17:24.190Z,102264.66
2022-10-17T15:19:50.836Z,102267.16
2022-10-17T15:22:18.236Z,102278.75
2022-10-17T15:24:48.058Z,102280.56
2022-10-17T15:27:17.193Z,102267.19
2022-10-17T15:29:44.762Z,102248.59
2022-10-17T15:32:11.426Z,102246.88
2022-10-17T15:34:38.059Z,102237.50
2022-10-17T15:37:06.760Z,102247.69
2022-10-17T15:39:33.583Z,102260.41
2022-10-17T15:42:00.123Z,102283.84
2022-10-17T15:44:26.644Z,102274.69
2022-10-17T15:46:55.427Z,102277.34
2022-10-17T15:49:21.824Z,102285.84
2022-10-17T15:51:51.705Z,102279.81
2022-10-17T15:54:21.857Z,102281.88
2022-10-17T15:56:54.077Z,102268.44
2022-10-17T15:59:26.671Z,102262.94
2022-10-17T16:01:53.171Z,102330.56
2022-10-17T16:04:19.645Z,102404.94
2022-10-17T16:06:46.118Z,102434.19
2022-10-17T16:09:12.591Z,102462.03
2022-10-17T16:11:43.277Z,102485.31
2022-10-17T16:14:15.536Z,102485.00
2022-10-17T16:16:42.387Z,102484.19
2022-10-17T16:19:09.025Z,102497.63
2022-10-17T16:21:39.991Z,102495.53
2022-10-17T16:24:07.055Z,102508.03
2022-10-17T16:26:33.524Z,102515.13
2022-10-17T16:29:02.759Z,102527.28
2022-10-17T16:31:33.541Z,102517.88
2022-10-17T16:34:01.552Z,102543.00
2022-10-17T16:36:28.600Z,102537.66
2022-10-17T16:38:55.127Z,102520.69
2022-10-17T16:41:34.268Z,102525.81
2022-10-17T16:44:04.284Z,102540.41
2022-10-17T16:46:32.198Z,102540.56
2022-10-17T16:48:59.408Z,102563.31
2022-10-17T16:51:25.975Z,102602.63
2022-10-17T16:53:54.365Z,102868.69
2022-10-17T16:56:22.722Z,102873.81
2022-10-17T16:58:49.253Z,102955.34
2022-10-17T17:01:23.260Z,102957.22
2022-10-17T17:03:50.838Z,102992.50
2022-10-17T17:06:20.650Z,103014.47
2022-10-17T17:08:47.628Z,103015.53
2022-10-17T17:11:15.679Z,103030.03
2022-10-17T17:13:42.537Z,103032.25
2022-10-17T17:16:11.825Z,103046.84
2022-10-17T17:18:38.652Z,103068.06
2022-10-17T17:21:07.262Z,102954.25
2022-10-17T17:23:36.028Z,103116.47
2022-10-17T17:26:05.619Z,103081.88
2022-10-17T17:28:33.650Z,103132.53
2022-10-17T17:31:00.848Z,103186.28
2022-10-17T17:33:29.728Z,103203.94
2022-10-17T17:35:58.204Z,103190.81
2022-10-17T17:38:24.880Z,103187.88
2022-10-17T17:40:51.956Z,103200.44
2022-10-17T17:43:18.859Z,103184.66
2022-10-17T17:45:45.606Z,103185.34
2022-10-17T17:48:12.340Z,103209.13
2022-10-17T17:50:40.562Z,103200.31
2022-10-17T17:53:08.456Z,103209.66
2022-10-17T17:55:34.996Z,103218.53
2022-10-17T17:58:02.042Z,103241.38
2022-10-17T18:00:29.105Z,103257.72
2022-10-17T18:02:56.424Z,103276.13
2022-10-17T18:05:22.989Z,103301.94
2022-10-17T18:07:49.459Z,103296.94
2022-10-17T18:10:16.089Z,103229.91
2022-10-17T18:12:42.696Z,103395.84
2022-10-17T18:15:09.554Z,103398.44
2022-10-17T18:17:36.335Z,103427.25
2022-10-17T18:20:03.445Z,103410.06
2022-10-17T18:22:30.027Z,103397.91
2022-10-17T18:24:56.629Z,103391.78
2022-10-17T18:27:23.319Z,103399.81
2022-10-17T18:29:51.138Z,103419.13
2022-10-17T18:32:18.073Z,103409.13
2022-10-17T18:34:44.472Z,103423.28
2022-10-17T18:37:10.886Z,103417.63
2022-10-17T18:39:37.330Z,103431.88
2022-10-17T18:42:03.859Z,103433.47
2022-10-17T18:44:32.533Z,103435.28
2022-10-17T18:47:03.047Z,103423.09
2022-10-17T18:49:30.988Z,103424.13
2022-10-17T18:51:57.706Z,103433.06
2022-10-17T18:54:27.087Z,103414.47
2022-10-17T18:56:54.447Z,103412.13
2022-10-17T18:59:21.224Z,103420.25
2022-10-17T19:01:48.744Z,103413.16
2022-10-17T19:04:15.372Z,103414.09
2022-10-17T19:06:42.180Z,103419.56
2022-10-17T19:09:10.912Z,103423.69
2022-10-17T19:11:38.559Z,103434.88
2022-10-17T19:14:12.812Z,103428.25
2022-10-17T19:16:43.326Z,103426.88
2022-10-17T19:19:21.616Z,103428.94
2022-10-17T19:21:48.550Z,103430.56
2022-10-17T19:24:18.843Z,103448.13
2022-10-17T19:26:46.636Z,103447.63
2022-10-17T19:29:15.153Z,103443.13
2022-10-17T19:31:41.961Z,103448.66
2022-10-17T19:34:09.863Z,103450.44
2022-10-17T19:36:36.427Z,103444.53
2022-10-17T19:39:05.796Z,103440.28
2022-10-17T19:41:33.076Z,103431.34
2022-10-17T19:44:00.431Z,103426.56
2022-10-17T19:46:28.627Z,103412.66
2022-10-17T19:48:55.671Z,103411.88
2022-10-17T19:51:24.488Z,103415.75
2022-10-17T19:53:52.476Z,103403.38
2022-10-17T19:56:23.249Z,103417.41
2022-10-17T19:58:50.852Z,103406.81
2022-10-17T20:01:20.769Z,103394.50
2022-10-17T20:03:47.697Z,103390.97
2022-10-17T20:06:14.361Z,103393.84
2022-10-17T20:08:41.852Z,103399.69
2022-10-17T20:11:13.062Z,103407.72
2022-10-17T20:13:40.549Z,103402.34
2022-10-17T20:16:09.055Z,103413.44
2022-10-17T20:18:35.770Z,103427.66
2022-10-17T20:21:05.166Z,103417.97
2022-10-17T20:23:31.790Z,103409.53
2022-10-17T20:26:13.354Z,103428.50
2022-10-17T20:28:45.563Z,103406.50
2022-10-17T20:31:12.755Z,103460.00
2022-10-17T20:33:41.381Z,103435.88
2022-10-17T20:36:10.019Z,103468.28
2022-10-17T20:38:36.719Z,103473.97
2022-10-17T20:41:08.777Z,103469.84
2022-10-17T20:43:36.590Z,103479.09
2022-10-17T20:46:21.917Z,103455.97
2022-10-17T20:48:54.033Z,103470.88
2022-10-17T20:51:21.732Z,103466.50
2022-10-17T20:53:48.830Z,103480.31
2022-10-17T20:56:27.368Z,103498.25
2022-10-17T20:58:56.414Z,103491.66
2022-10-17T21:01:23.846Z,103501.06
2022-10-17T21:03:50.626Z,103498.09
2022-10-17T21:06:18.155Z,103512.88
2022-10-17T21:08:46.242Z,103533.53
2022-10-17T21:11:21.885Z,103555.56
2022-10-17T21:13:53.689Z,103539.31
2022-10-17T21:16:20.361Z,103557.09
2022-10-17T21:18:46.864Z,103533.56
2022-10-17T21:21:16.599Z,103543.31
2022-10-17T21:23:44.433Z,103545.75
2022-10-17T21:26:12.665Z,103544.44
2022-10-17T21:28:42.476Z,103527.63
2022-10-17T21:31:17.945Z,103505.69
2022-10-17T21:33:50.116Z,103494.78
2022-10-17T21:36:17.494Z,103484.66
2022-10-17T21:38:48.767Z,103491.75
2022-10-17T21:41:17.709Z,103489.44
2022-10-17T21:43:44.116Z,103501.38
2022-10-17T21:46:14.147Z,103533.78
2022-10-17T21:48:41.206Z,103547.31
2022-10-17T21:51:10.941Z,103550.00
2022-10-17T21:53:38.079Z,103531.97
2022-10-17T21:56:07.324Z,103552.59
2022-10-17T21:58:33.786Z,103536.00
2022-10-17T22:01:10.380Z,103540.28
2022-10-17T22:03:42.691Z,103526.19
2022-10-17T22:09:00.657Z,103525.91
2022-10-17T22:11:30.331Z,103527.69
2022-10-17T22:14:01.982Z,103519.22
2022-10-17T22:16:28.893Z,103519.06
2022-10-17T22:19:06.216Z,103524.81
2022-10-17T22:21:34.764Z,103530.63
2022-10-17T22:24:06.868Z,103536.63
2022-10-17T22:26:35.584Z,103541.97
2022-10-17T22:29:03.044Z,103530.56
2022-10-17T22:31:29.586Z,103537.00
2022-10-17T22:33:56.417Z,103538.22
2022-10-17T22:36:23.088Z,103544.00
2022-10-17T22:38:49.552Z,103536.31
2022-10-17T22:41:15.999Z,103540.41
2022-10-17T22:43:42.567Z,103529.94
2022-10-17T22:46:12.851Z,103534.47
2022-10-17T22:48:39.683Z,103537.97
2022-10-17T22:51:06.324Z,103534.25
2022-10-17T22:53:32.754Z,103535.19
2022-10-17T22:56:01.081Z,103533.66
2022-10-17T22:58:28.283Z,103530.38
2022-10-17T23:00:55.060Z,103526.03
2022-10-17T23:03:22.648Z,103537.50
2022-10-17T23:05:49.715Z,103537.16
2022-10-17T23:08:18.008Z,103537.38
2022-10-17T23:10:44.955Z,103539.19
2022-10-17T23:13:11.836Z,103531.72
2022-10-17T23:15:38.311Z,103508.78
2022-10-17T23:18:04.870Z,103510.72
2022-10-17T23:20:31.610Z,103504.31
2022-10-17T23:22:59.181Z,103513.38
2022-10-17T23:25:25.927Z,103508.03
2022-10-17T23:27:52.423Z,103506.84
2022-10-17T23:30:18.939Z,103505.25
2022-10-17T23:32:45.364Z,103508.25
2022-10-17T23:35:13.251Z,103498.44
2022-10-17T23:37:39.681Z,103513.38
2022-10-17T23:40:06.707Z,103516.06
2022-10-17T23:42:33.129Z,103525.13
2022-10-17T23:44:59.568Z,103521.81
2022-10-17T23:47:26.008Z,103494.72
2022-10-17T23:49:52.449Z,103486.69
2022-10-17T23:52:18.906Z,103494.72
2022-10-17T23:54:45.353Z,103486.19
2022-10-17T23:57:11.785Z,103482.09
2022-10-17T23:59:38.226Z,103464.97
